createdAt,value
2023-03-31T00:01:30.964Z,8.55
2023-03-31T00:04:33.002Z,8.55
2023-03-31T00:07:34.820Z,8.56
2023-03-31T00:10:44.650Z,8.61
2023-03-31T00:13:46.721Z,8.60
2023-03-31T00:16:49.061Z,8.65
2023-03-31T00:20:11.662Z,8.65
2023-03-31T00:23:15.970Z,8.65
2023-03-31T00:26:20.786Z,8.68
2023-03-31T00:29:22.827Z,8.71
2023-03-31T00:32:28.631Z,8.78
2023-03-31T00:35:30.605Z,8.88
2023-03-31T00:38:35.641Z,8.93
2023-03-31T00:41:40.142Z,8.96
2023-03-31T00:45:27.205Z,8.97
2023-03-31T00:48:51.051Z,8.96
2023-03-31T00:51:59.634Z,8.98
2023-03-31T00:55:09.201Z,9.05
2023-03-31T00:58:12.141Z,9.10
2023-03-31T01:01:17.542Z,9.11
2023-03-31T01:04:30.971Z,9.11
2023-03-31T01:07:42.759Z,9.11
2023-03-31T01:10:59.981Z,9.09
2023-03-31T01:14:14.185Z,9.02
2023-03-31T01:17:16.397Z,9.00
2023-03-31T01:20:56.078Z,8.98
2023-03-31T01:24:16.485Z,8.94
2023-03-31T01:27:47.669Z,8.92
2023-03-31T01:31:02.172Z,8.96
2023-03-31T01:34:40.368Z,9.01
2023-03-31T01:38:15.026Z,9.03
2023-03-31T01:41:20.773Z,9.04
2023-03-31T01:44:40.239Z,9.09
2023-03-31T01:48:07.625Z,9.12
2023-03-31T01:51:18.173Z,9.14
2023-03-31T01:54:57.582Z,9.13
2023-03-31T01:58:08.673Z,9.09
2023-03-31T02:01:17.633Z,9.09
2023-03-31T02:04:23.478Z,9.08
2023-03-31T02:07:32.209Z,9.07
2023-03-31T02:10:35.040Z,9.08
2023-03-31T02:13:42.035Z,9.06
2023-03-31T02:16:48.029Z,9.06
2023-03-31T02:20:02.792Z,9.05
2023-03-31T02:23:05.172Z,9.06
2023-03-31T02:26:31.577Z,9.03
2023-03-31T02:29:34.021Z,9.03
2023-03-31T02:32:45.005Z,9.02
2023-03-31T02:35:56.338Z,8.99
2023-03-31T02:39:08.293Z,8.98
2023-03-31T02:42:12.719Z,8.98
2023-03-31T02:45:37.821Z,8.96
2023-03-31T02:48:43.911Z,8.93
2023-03-31T02:52:24.018Z,8.90
2023-03-31T02:56:03.743Z,8.86
2023-03-31T02:59:30.213Z,8.86
2023-03-31T03:02:49.278Z,8.86
2023-03-31T03:06:15.499Z,8.86
2023-03-31T03:09:53.198Z,8.85
2023-03-31T03:13:05.104Z,8.84
2023-03-31T03:16:33.997Z,8.79
2023-03-31T03:19:36.071Z,8.74
2023-03-31T03:22:39.479Z,8.72
2023-03-31T03:25:41.775Z,8.72
2023-03-31T03:28:43.745Z,8.68
2023-03-31T03:31:48.648Z,8.63
2023-03-31T03:34:50.880Z,8.55
2023-03-31T03:38:21.676Z,8.50
2023-03-31T03:41:23.666Z,8.45
2023-03-31T03:44:31.731Z,8.43
2023-03-31T03:47:53.785Z,8.37
2023-03-31T03:50:56.009Z,8.31
2023-03-31T03:54:18.092Z,8.26
2023-03-31T03:57:39.987Z,8.21
2023-03-31T04:00:51.050Z,8.13
2023-03-31T04:03:52.960Z,8.03
2023-03-31T04:06:58.442Z,7.92
2023-03-31T04:10:00.350Z,7.78
2023-03-31T04:13:02.105Z,7.67
2023-03-31T04:16:06.461Z,7.66
2023-03-31T04:19:08.516Z,7.65
2023-03-31T04:22:58.227Z,7.66
2023-03-31T04:26:00.584Z,7.68
2023-03-31T04:29:14.194Z,7.73
2023-03-31T04:32:21.311Z,7.77
2023-03-31T04:35:45.005Z,7.79
2023-03-31T04:39:10.049Z,7.78
2023-03-31T04:42:35.010Z,7.76
2023-03-31T04:45:39.505Z,7.80
2023-03-31T04:48:44.390Z,7.85
2023-03-31T04:51:49.194Z,7.92
2023-03-31T04:55:14.197Z,7.98
2023-03-31T04:58:16.173Z,8.00
2023-03-31T05:01:18.634Z,8.02
2023-03-31T05:04:28.592Z,8.02
2023-03-31T05:07:50.547Z,8.03
2023-03-31T05:10:52.451Z,8.00
2023-03-31T05:14:12.339Z,8.00
2023-03-31T05:17:34.573Z,8.00
2023-03-31T05:20:36.384Z,8.05
2023-03-31T05:23:38.251Z,8.13
2023-03-31T05:26:40.268Z,8.40
2023-03-31T05:30:04.882Z,8.54
2023-03-31T05:33:16.956Z,8.63
2023-03-31T05:36:18.939Z,8.71
2023-03-31T05:39:21.157Z,8.76
2023-03-31T05:42:25.939Z,8.80
2023-03-31T05:45:35.010Z,8.85
2023-03-31T05:48:59.389Z,8.89
2023-03-31T05:52:01.406Z,8.92
2023-03-31T05:55:04.162Z,8.94
2023-03-31T05:58:06.872Z,8.95
2023-03-31T06:01:19.912Z,8.93
2023-03-31T06:04:21.796Z,8.92
2023-03-31T06:07:41.584Z,8.94
2023-03-31T06:10:50.835Z,8.97
2023-03-31T06:13:52.874Z,9.01
2023-03-31T06:16:57.367Z,9.05
2023-03-31T06:20:24.600Z,9.08
2023-03-31T06:23:41.880Z,9.14
2023-03-31T06:26:46.941Z,9.21
2023-03-31T06:29:51.298Z,9.31
2023-03-31T06:32:53.201Z,9.46
2023-03-31T06:35:58.350Z,9.68
2023-03-31T06:39:00.205Z,9.84
2023-03-31T06:42:01.891Z,9.98
2023-03-31T06:45:03.728Z,10.40
2023-03-31T06:48:06.201Z,11.17
2023-03-31T06:51:08.888Z,11.52
2023-03-31T06:54:10.749Z,11.44
2023-03-31T06:57:12.937Z,12.05
2023-03-31T07:00:15.246Z,12.56
2023-03-31T07:03:17.256Z,12.89
2023-03-31T07:06:19.284Z,13.19
2023-03-31T07:09:20.829Z,13.46
2023-03-31T07:12:22.386Z,13.70
2023-03-31T07:15:25.214Z,13.38
2023-03-31T07:18:26.880Z,12.84
2023-03-31T07:21:28.622Z,12.92
2023-03-31T07:24:30.135Z,13.39
2023-03-31T07:27:31.687Z,13.72
2023-03-31T07:30:33.532Z,14.05
2023-03-31T07:33:35.508Z,14.56
2023-03-31T07:36:37.224Z,15.01
2023-03-31T07:39:38.861Z,15.07
2023-03-31T07:42:41.729Z,15.10
2023-03-31T07:45:43.441Z,15.18
2023-03-31T07:48:45.661Z,15.39
2023-03-31T07:51:47.197Z,15.82
2023-03-31T07:54:49.240Z,16.05
2023-03-31T07:57:50.839Z,15.87
2023-03-31T08:00:52.511Z,15.79
2023-03-31T08:03:54.157Z,15.90
2023-03-31T08:06:55.741Z,16.26
2023-03-31T08:09:57.913Z,16.49
2023-03-31T08:12:59.576Z,16.60
2023-03-31T08:16:01.250Z,16.84
2023-03-31T08:19:02.864Z,17.00
2023-03-31T08:22:04.446Z,16.81
2023-03-31T08:25:07.260Z,17.39
2023-03-31T08:28:08.871Z,17.90
2023-03-31T08:31:10.545Z,17.91
2023-03-31T08:34:12.250Z,17.41
2023-03-31T08:37:14.029Z,17.29
2023-03-31T08:40:20.028Z,16.42
2023-03-31T08:43:27.946Z,15.98
2023-03-31T08:46:30.879Z,16.08
2023-03-31T08:49:42.318Z,15.89
2023-03-31T08:53:15.712Z,16.68
2023-03-31T08:56:19.442Z,17.60
2023-03-31T08:59:29.998Z,17.61
2023-03-31T09:03:00.508Z,16.80
2023-03-31T09:06:11.829Z,15.88
2023-03-31T09:09:26.667Z,15.93
2023-03-31T09:12:51.115Z,15.81
2023-03-31T09:16:05.030Z,15.99
2023-03-31T09:19:36.932Z,16.10
2023-03-31T09:22:42.058Z,16.70
2023-03-31T09:25:44.519Z,16.68
2023-03-31T09:28:46.757Z,16.86
2023-03-31T09:31:48.450Z,17.37
2023-03-31T09:34:57.594Z,17.21
2023-03-31T09:37:59.296Z,16.44
2023-03-31T09:41:02.540Z,15.89
2023-03-31T09:44:22.528Z,15.85
2023-03-31T09:47:39.321Z,16.22
2023-03-31T09:50:46.715Z,15.76
2023-03-31T09:53:58.875Z,15.41
2023-03-31T09:57:00.494Z,15.18
2023-03-31T10:00:13.598Z,14.98
2023-03-31T10:03:15.888Z,14.60
2023-03-31T10:06:17.673Z,15.05
2023-03-31T10:09:21.711Z,15.83
2023-03-31T10:12:29.083Z,16.56
2023-03-31T10:15:30.706Z,17.34
2023-03-31T10:18:38.751Z,18.04
2023-03-31T10:21:40.502Z,17.94
2023-03-31T10:24:44.520Z,18.09
2023-03-31T10:27:52.438Z,18.14
2023-03-31T10:30:58.713Z,17.79
2023-03-31T10:34:07.421Z,18.68
2023-03-31T10:37:17.369Z,18.81
2023-03-31T10:40:25.896Z,18.80
2023-03-31T10:43:30.217Z,18.30
2023-03-31T10:46:43.315Z,17.49
2023-03-31T10:49:45.420Z,17.13
2023-03-31T10:52:48.622Z,16.82
2023-03-31T10:56:01.817Z,17.21
2023-03-31T10:59:22.176Z,17.91
2023-03-31T11:03:02.583Z,17.94
2023-03-31T11:06:12.480Z,17.83
2023-03-31T11:09:56.600Z,17.34
2023-03-31T11:13:27.749Z,16.77
2023-03-31T11:16:41.209Z,16.45
2023-03-31T11:19:53.329Z,16.61
2023-03-31T11:22:58.731Z,17.16
2023-03-31T11:26:09.425Z,17.14
2023-03-31T11:29:29.199Z,17.05
2023-03-31T11:32:51.849Z,16.74
2023-03-31T11:35:53.452Z,16.78
2023-03-31T11:39:20.125Z,16.98
2023-03-31T11:42:26.423Z,16.90
2023-03-31T11:45:32.902Z,16.76
2023-03-31T11:48:48.296Z,16.72
2023-03-31T11:51:54.747Z,16.57
2023-03-31T11:55:18.333Z,16.24
2023-03-31T11:58:29.699Z,15.86
2023-03-31T12:01:42.477Z,15.62
2023-03-31T12:04:50.587Z,15.50
2023-03-31T12:08:00.647Z,15.37
2023-03-31T12:11:11.257Z,15.26
2023-03-31T12:14:37.506Z,15.12
2023-03-31T12:17:40.889Z,14.99
2023-03-31T12:20:58.656Z,14.88
2023-03-31T12:24:00.292Z,14.76
2023-03-31T12:27:13.626Z,14.69
2023-03-31T12:30:28.290Z,14.69
2023-03-31T12:33:42.656Z,14.81
2023-03-31T12:36:57.106Z,15.05
2023-03-31T12:40:11.494Z,15.36
2023-03-31T12:43:49.369Z,15.88
2023-03-31T12:47:10.399Z,16.25
2023-03-31T12:50:36.849Z,16.55
2023-03-31T12:54:09.115Z,16.77
2023-03-31T12:57:10.730Z,16.77
2023-03-31T13:00:26.439Z,16.82
2023-03-31T13:03:34.189Z,17.00
2023-03-31T13:06:35.910Z,17.21
2023-03-31T13:09:44.509Z,17.10
2023-03-31T13:13:12.100Z,16.82
2023-03-31T13:16:20.286Z,16.61
2023-03-31T13:19:30.246Z,16.44
2023-03-31T13:22:35.350Z,16.31
2023-03-31T13:25:41.679Z,16.33
2023-03-31T13:28:43.796Z,16.54
2023-03-31T13:32:00.684Z,16.96
2023-03-31T13:35:14.250Z,16.89
2023-03-31T13:38:22.895Z,16.76
2023-03-31T13:41:55.858Z,16.53
2023-03-31T13:45:30.290Z,16.32
2023-03-31T13:49:01.997Z,16.19
2023-03-31T13:52:05.290Z,16.23
2023-03-31T13:55:24.285Z,16.50
2023-03-31T13:58:39.218Z,16.68
2023-03-31T14:02:05.236Z,16.76
2023-03-31T14:05:22.985Z,16.64
2023-03-31T14:08:27.714Z,16.42
2023-03-31T14:11:32.391Z,16.21
2023-03-31T14:14:34.079Z,16.04
2023-03-31T14:17:40.662Z,15.89
2023-03-31T14:20:50.002Z,15.78
2023-03-31T14:24:13.395Z,15.66
2023-03-31T14:27:37.301Z,15.57
2023-03-31T14:31:01.521Z,15.43
2023-03-31T14:34:34.214Z,15.22
2023-03-31T14:37:35.974Z,14.73
2023-03-31T15:03:52.000Z,9.72
2023-03-31T15:06:54.638Z,9.93
2023-03-31T15:09:56.306Z,10.06
2023-03-31T15:12:57.988Z,10.15
2023-03-31T15:16:00.421Z,10.26
2023-03-31T15:19:07.865Z,10.40
2023-03-31T15:22:15.246Z,10.50
2023-03-31T15:25:17.273Z,10.57
2023-03-31T15:28:18.932Z,10.60
2023-03-31T15:31:21.033Z,10.62
2023-03-31T15:34:27.042Z,10.63
2023-03-31T15:37:31.489Z,10.63
2023-03-31T15:40:38.354Z,10.71
2023-03-31T15:43:49.777Z,10.86
2023-03-31T15:47:01.309Z,11.02
2023-03-31T15:50:13.062Z,11.08
2023-03-31T15:53:36.172Z,11.09
2023-03-31T15:56:42.773Z,11.06
2023-03-31T16:02:53.432Z,10.99
2023-03-31T16:06:00.889Z,10.96
2023-03-31T16:09:06.774Z,10.95
2023-03-31T16:12:30.497Z,10.93
2023-03-31T16:15:36.100Z,10.87
2023-03-31T16:18:41.604Z,10.82
2023-03-31T16:21:47.477Z,10.78
2023-03-31T16:24:49.447Z,10.75
2023-03-31T16:27:54.071Z,10.75
2023-03-31T16:30:55.667Z,10.77
2023-03-31T16:33:57.286Z,10.77
2023-03-31T16:36:58.924Z,10.73
2023-03-31T16:40:00.612Z,10.72
2023-03-31T16:43:18.705Z,10.70
2023-03-31T16:46:21.676Z,10.69
2023-03-31T16:49:23.221Z,10.67
2023-03-31T16:52:24.838Z,10.63
2023-03-31T16:55:26.412Z,10.58
2023-03-31T16:58:28.666Z,10.52
2023-03-31T17:01:30.301Z,10.47
2023-03-31T17:04:32.230Z,10.39
2023-03-31T17:07:33.868Z,10.30
2023-03-31T17:10:36.217Z,10.23
2023-03-31T17:13:39.004Z,10.14
2023-03-31T17:16:48.153Z,10.07
2023-03-31T17:19:50.367Z,9.99
2023-03-31T17:22:52.292Z,9.94
2023-03-31T17:25:54.186Z,9.89
2023-03-31T17:28:55.834Z,9.87
2023-03-31T17:31:57.737Z,9.84
2023-03-31T17:34:59.530Z,9.81
2023-03-31T17:38:01.056Z,9.81
2023-03-31T17:41:08.056Z,9.82
2023-03-31T17:44:09.739Z,9.90
2023-03-31T17:47:11.370Z,9.99
2023-03-31T17:50:13.022Z,10.06
2023-03-31T17:53:14.642Z,10.13
2023-03-31T17:56:17.260Z,10.19
2023-03-31T17:59:19.373Z,10.22
2023-03-31T18:02:21.106Z,10.20
2023-03-31T18:05:22.805Z,10.16
2023-03-31T18:08:24.472Z,10.07
2023-03-31T18:11:26.263Z,9.93
2023-03-31T18:14:27.882Z,9.80
2023-03-31T18:17:30.825Z,9.78
2023-03-31T18:20:33.189Z,9.78
2023-03-31T18:23:36.084Z,9.78
2023-03-31T18:26:37.695Z,9.80
2023-03-31T18:29:39.307Z,9.83
2023-03-31T18:32:41.031Z,9.79
2023-03-31T18:35:42.799Z,9.72
2023-03-31T18:38:46.155Z,9.66
2023-03-31T18:41:48.553Z,9.57
2023-03-31T18:44:50.975Z,9.41
2023-03-31T18:47:52.640Z,9.39
2023-03-31T18:50:54.458Z,9.34
2023-03-31T18:53:56.201Z,9.12
2023-03-31T18:56:57.842Z,8.87
2023-03-31T18:59:59.582Z,8.65
2023-03-31T19:03:01.089Z,8.53
2023-03-31T19:06:07.286Z,8.43
2023-03-31T19:09:08.996Z,8.37
2023-03-31T19:12:10.768Z,8.24
2023-03-31T19:15:12.310Z,8.08
2023-03-31T19:18:14.387Z,8.03
2023-03-31T19:21:15.933Z,8.01
2023-03-31T19:24:17.632Z,7.94
2023-03-31T19:27:19.581Z,7.94
2023-03-31T19:30:23.458Z,7.99
2023-03-31T19:33:25.979Z,7.96
2023-03-31T19:36:27.877Z,7.91
2023-03-31T19:39:29.308Z,7.95
2023-03-31T19:42:33.262Z,8.14
2023-03-31T19:45:36.524Z,8.24
2023-03-31T19:48:38.243Z,8.23
2023-03-31T19:51:39.942Z,8.11
2023-03-31T19:54:41.498Z,8.11
2023-03-31T19:57:42.969Z,8.05
2023-03-31T20:00:44.628Z,7.96
2023-03-31T20:03:46.475Z,7.97
2023-03-31T20:06:49.457Z,7.99
2023-03-31T20:09:51.240Z,7.96
2023-03-31T20:12:53.909Z,7.92
2023-03-31T20:15:59.896Z,7.98
2023-03-31T20:19:20.692Z,7.97
2023-03-31T20:22:28.056Z,7.85
2023-03-31T20:25:30.447Z,7.84
2023-03-31T20:28:33.934Z,7.83
2023-03-31T20:31:37.094Z,7.82
2023-03-31T20:34:38.752Z,7.93
2023-03-31T20:37:40.300Z,8.18
2023-03-31T20:40:45.517Z,8.34
2023-03-31T20:43:47.490Z,8.38
2023-03-31T20:46:49.209Z,8.38
2023-03-31T20:49:50.891Z,8.43
2023-03-31T20:52:52.528Z,8.48
2023-03-31T20:55:55.807Z,8.52
2023-03-31T20:58:58.442Z,8.55
2023-03-31T21:02:00.280Z,8.58
2023-03-31T21:05:01.993Z,8.62
2023-03-31T21:08:03.776Z,8.69
2023-03-31T21:11:05.427Z,8.69
2023-03-31T21:14:07.672Z,8.58
2023-03-31T21:17:09.549Z,8.61
2023-03-31T21:20:11.382Z,8.64
2023-03-31T21:23:12.968Z,8.70
2023-03-31T21:26:14.953Z,8.73
2023-03-31T21:29:17.069Z,8.71
2023-03-31T21:32:20.828Z,8.69
2023-03-31T21:35:23.017Z,8.59
2023-03-31T21:38:26.485Z,8.44
2023-03-31T21:41:30.528Z,8.40
2023-03-31T21:44:32.277Z,8.47
2023-03-31T21:47:33.815Z,8.60
2023-03-31T21:50:39.085Z,8.67
2023-03-31T21:53:40.810Z,8.78
2023-03-31T21:56:42.362Z,8.86
2023-03-31T21:59:43.902Z,8.87
2023-03-31T22:02:45.486Z,8.83
2023-03-31T22:05:48.402Z,8.73
2023-03-31T22:08:50.031Z,8.63
2023-03-31T22:11:51.655Z,8.54
2023-03-31T22:14:54.276Z,8.47
2023-03-31T22:17:55.871Z,8.41
2023-03-31T22:20:58.278Z,8.34
2023-03-31T22:24:01.162Z,8.28
2023-03-31T22:27:02.836Z,8.25
2023-03-31T22:30:04.889Z,8.29
2023-03-31T22:33:06.711Z,8.38
2023-03-31T22:36:08.911Z,8.49
2023-03-31T22:39:10.496Z,8.73
2023-03-31T22:42:11.958Z,8.94
2023-03-31T22:45:13.606Z,9.07
2023-03-31T22:48:15.452Z,9.20
2023-03-31T22:51:17.488Z,9.24
2023-03-31T22:54:19.020Z,9.29
2023-03-31T22:57:20.592Z,9.34
2023-03-31T23:00:22.341Z,9.37
2023-03-31T23:03:24.265Z,9.38
2023-03-31T23:06:26.063Z,9.48
2023-03-31T23:09:27.813Z,9.50
2023-03-31T23:12:29.806Z,9.56
2023-03-31T23:15:31.661Z,9.58
2023-03-31T23:18:34.395Z,9.57
2023-03-31T23:21:35.995Z,9.57
2023-03-31T23:24:37.612Z,9.58
2023-03-31T23:27:39.216Z,9.58
2023-03-31T23:30:41.096Z,9.58
2023-03-31T23:33:42.983Z,9.55
2023-03-31T23:36:44.550Z,9.54
2023-03-31T23:39:46.282Z,9.54
2023-03-31T23:42:47.852Z,9.47
2023-03-31T23:45:49.437Z,9.45
2023-03-31T23:48:51.356Z,9.44
2023-03-31T23:51:52.975Z,9.40
2023-03-31T23:54:54.665Z,9.39
2023-03-31T23:57:56.257Z,9.41
